Four Rigoletto — 9HA4672 — position and weather

sailwx.info

Track history (hours):
 
Tides and Currents Weather Stations Pressure Air Temp Water Temp Dewpoint Dewpoint Depression Visibility Wind Speed Wind Dir Waves Ship Positions

Four Rigoletto

Last reported at 2017-Dec-27 17:29 UTC. Time now 2018-Feb-23 16:37 UTC.
Position N 07°53' W 015°36'.
Warning: this ship's position is 57 days out of date.

Length 181 m; draft 9 m.

Type: Cargo ship. MMSI: 248189100.

Date/timePositionNaut miles runAvg speedWind from/ knotsBaromVisibWave heightAir tempDewpointWater temp
2017-Dec-27 17:29N 07°53' W 015°36'613.0
2017-Dec-27 17:00N 07°58' W 015°41'912.8
2017-Dec-27 16:19N 08°04' W 015°47'412.7
2017-Dec-27 15:58N 08°08' W 015°50'612.8
2017-Dec-27 15:30N 08°12' W 015°54'813.1
2017-Dec-27 14:54N 08°18' W 015°59'513.2
2017-Dec-27 14:30N 08°22' W 016°03'713.2
2017-Dec-27 14:00N 08°26' W 016°08'613.2
2017-Dec-27 13:30N 08°31' W 016°12'713.1
2017-Dec-27 13:00N 08°36' W 016°16'713.1
2017-Dec-27 12:30N 08°41' W 016°21'713.1
2017-Dec-27 12:00N 08°46' W 016°25'713.1
2017-Dec-27 11:30N 08°51' W 016°30'813.4
2017-Dec-27 10:53N 08°57' W 016°36'513.3
2017-Dec-27 10:30N 09°00' W 016°39'13512.8
2017-Dec-26 23:55N 10°40' W 018°12'  
2017-Dec-23 03:35N 28°38' W 013°09'  
2017-Dec-18 06:19N 35°58' W 005°36'411.4
2017-Dec-18 06:00N 35°59' W 005°32'611.8
2017-Dec-18 05:30N 36°01' W 005°25'611.0
2017-Dec-18 05:00N 36°06' W 005°22'1 2.1
2017-Dec-18 04:30N 36°07' W 005°22'0 0.1
2017-Dec-18 03:52N 36°07' W 005°22'0 0.1
2017-Dec-18 03:22N 36°07' W 005°22'0 0.0
2017-Dec-18 02:58N 36°07' W 005°22'0 0.0
2017-Dec-18 02:28N 36°07' W 005°22'0 0.1
2017-Dec-18 01:58N 36°07' W 005°22'0 0.0
2017-Dec-18 01:28N 36°07' W 005°22'0 0.0
2017-Dec-18 00:58N 36°07' W 005°22'0 0.1
2017-Dec-18 00:28N 36°07' W 005°22'0 0.0
2017-Dec-17 23:55N 36°07' W 005°22'0 0.0
2017-Dec-17 23:19N 36°07' W 005°22'0 0.1
2017-Dec-17 22:58N 36°07' W 005°22'0 0.1
2017-Dec-17 22:28N 36°07' W 005°21'0 0.0
2017-Dec-17 21:58N 36°07' W 005°21'0 0.0
2017-Dec-17 20:58N 36°07' W 005°21'0 0.1
2017-Dec-17 18:55N 36°07' W 005°22'  
Track history (hours):
 
Tides and Currents Weather Stations Pressure Air Temp Water Temp Dewpoint Dewpoint Depression Visibility Wind Speed Wind Dir Waves Ship Positions

Four Rigoletto

Last reported at 2017-Dec-27 17:29 UTC. Time now 2018-Feb-23 16:37 UTC.
Position N 07°53' W 015°36'.
Warning: this ship's position is 57 days out of date.

Length 181 m; draft 9 m.

Type: Cargo ship. MMSI: 248189100.

Date/timePositionNaut miles runAvg speedWind from/ knotsBaromVisibWave heightAir tempDewpointWater temp
2017-Dec-27 17:29N 07°53' W 015°36'613.0
2017-Dec-27 17:00N 07°58' W 015°41'912.8
2017-Dec-27 16:19N 08°04' W 015°47'412.7
2017-Dec-27 15:58N 08°08' W 015°50'612.8
2017-Dec-27 15:30N 08°12' W 015°54'813.1
2017-Dec-27 14:54N 08°18' W 015°59'513.2
2017-Dec-27 14:30N 08°22' W 016°03'713.2
2017-Dec-27 14:00N 08°26' W 016°08'613.2
2017-Dec-27 13:30N 08°31' W 016°12'713.1
2017-Dec-27 13:00N 08°36' W 016°16'713.1
2017-Dec-27 12:30N 08°41' W 016°21'713.1
2017-Dec-27 12:00N 08°46' W 016°25'713.1
2017-Dec-27 11:30N 08°51' W 016°30'813.4
2017-Dec-27 10:53N 08°57' W 016°36'513.3
2017-Dec-27 10:30N 09°00' W 016°39'13512.8
2017-Dec-26 23:55N 10°40' W 018°12'  
2017-Dec-23 03:35N 28°38' W 013°09'  
2017-Dec-18 06:19N 35°58' W 005°36'411.4
2017-Dec-18 06:00N 35°59' W 005°32'611.8
2017-Dec-18 05:30N 36°01' W 005°25'611.0
2017-Dec-18 05:00N 36°06' W 005°22'1 2.1
2017-Dec-18 04:30N 36°07' W 005°22'0 0.1
2017-Dec-18 03:52N 36°07' W 005°22'0 0.1
2017-Dec-18 03:22N 36°07' W 005°22'0 0.0
2017-Dec-18 02:58N 36°07' W 005°22'0 0.0
2017-Dec-18 02:28N 36°07' W 005°22'0 0.1
2017-Dec-18 01:58N 36°07' W 005°22'0 0.0
2017-Dec-18 01:28N 36°07' W 005°22'0 0.0
2017-Dec-18 00:58N 36°07' W 005°22'0 0.1
2017-Dec-18 00:28N 36°07' W 005°22'0 0.0
2017-Dec-17 23:55N 36°07' W 005°22'0 0.0
2017-Dec-17 23:19N 36°07' W 005°22'0 0.1
2017-Dec-17 22:58N 36°07' W 005°22'0 0.1
2017-Dec-17 22:28N 36°07' W 005°21'0 0.0
2017-Dec-17 21:58N 36°07' W 005°21'0 0.0
2017-Dec-17 20:58N 36°07' W 005°21'0 0.1
2017-Dec-17 18:55N 36°07' W 005°22'  

Dump ship's entire track history